Time;durP1;ratioP1;P1;durP2;ratioP2;P2;SDS_P1;SDS_P2;PMS_P1;PMS_P2;Temp;Humidity;BMP_temperature;BMP_pressure;BME280_temperature;BME280_humidity;BME280_pressure;Samples;Min_cycle;Max_cycle;Signal;HPM_P1;HPM_P2
2021/12/01 00:02:00;;;;;;;41.23;37.43;;;;;;;;;;5052320;28;20525;-80
2021/12/01 00:04:27;;;;;;;40.97;37.53;;;;;;;;;;5052620;28;20416;-81
2021/12/01 00:06:55;;;;;;;44.67;40.27;;;;;;;;;;5052466;28;20464;-80
2021/12/01 00:09:22;;;;;;;44.27;40.07;;;;;;;;;;5052515;28;20410;-81
2021/12/01 00:11:50;;;;;;;42.17;38.77;;;;;;;;;;5052486;28;20444;-80
2021/12/01 00:14:17;;;;;;;46.05;41.70;;;;;;;;;;5051811;28;20446;-80
2021/12/01 00:16:44;;;;;;;35.97;33.23;;;;;;;;;;5052498;28;20192;-81
2021/12/01 00:19:13;;;;;;;41.75;38.10;;;;;;;;;;5052860;28;20793;-81
2021/12/01 00:21:41;;;;;;;38.80;35.50;;;;;;;;;;5052643;28;20549;-80
2021/12/01 00:24:08;;;;;;;39.38;35.97;;;;;;;;;;5052434;28;20425;-80
2021/12/01 00:26:36;;;;;;;40.03;36.88;;;;;;;;;;5052348;28;20223;-81
2021/12/01 00:29:03;;;;;;;38.53;35.77;;;;;;;;;;5052341;28;20199;-81
2021/12/01 00:31:30;;;;;;;43.35;39.40;;;;;;;;;;5053345;28;20416;-80
2021/12/01 00:33:58;;;;;;;37.80;34.43;;;;;;;;;;5056188;28;20198;-80
2021/12/01 00:36:30;;;;;;;42.20;38.78;;;;;;;;;;5054474;28;20808;-81
2021/12/01 00:38:57;;;;;;;39.47;36.33;;;;;;;;;;5056111;28;20191;-81
2021/12/01 00:41:25;;;;;;;40.63;37.23;;;;;;;;;;5055982;28;20668;-80
2021/12/01 00:43:53;;;;;;;40.13;36.43;;;;;;;;;;5055741;28;20424;-80
2021/12/01 00:46:24;;;;;;;41.33;37.60;;;;;;;;;;5055755;28;21001;-80
2021/12/01 00:48:51;;;;;;;43.85;39.70;;;;;;;;;;5055557;28;20452;-80
2021/12/01 00:51:19;;;;;;;45.17;40.75;;;;;;;;;;5055435;28;20194;-81
2021/12/01 00:53:49;;;;;;;40.90;37.27;;;;;;;;;;5055396;28;20194;-80
2021/12/01 00:56:17;;;;;;;40.30;36.80;;;;;;;;;;5055544;28;20964;-81
2021/12/01 00:58:44;;;;;;;38.10;34.87;;;;;;;;;;5055741;28;20415;-80
2021/12/01 01:01:12;;;;;;;40.27;36.30;;;;;;;;;;5054081;28;20423;-80
2021/12/01 01:03:40;;;;;;;38.40;34.58;;;;;;;;;;5055264;28;20883;-80
2021/12/01 01:06:08;;;;;;;41.43;37.40;;;;;;;;;;5055083;28;20238;-81
2021/12/01 01:08:36;;;;;;;39.60;35.87;;;;;;;;;;5055634;28;20461;-80
2021/12/01 01:16:22;;;;;;;46.43;40.90;;;;;;;;;;5055669;28;20484;-80
2021/12/01 01:16:44;;;;;;;40.00;36.67;;;;;;;;;;5055129;28;20390;-80
2021/12/01 01:19:12;;;;;;;40.53;36.73;;;;;;;;;;5055375;28;20511;-80
2021/12/01 01:21:44;;;;;;;39.57;36.37;;;;;;;;;;5055369;28;20487;-81
2021/12/01 01:24:11;;;;;;;34.43;31.90;;;;;;;;;;5054932;28;20540;-81
2021/12/01 01:26:40;;;;;;;34.90;32.13;;;;;;;;;;5054875;28;20489;-80
2021/12/01 01:29:08;;;;;;;34.83;32.23;;;;;;;;;;5055114;28;20437;-80
2021/12/01 01:31:35;;;;;;;29.30;27.53;;;;;;;;;;5054809;28;20419;-80
2021/12/01 01:34:03;;;;;;;34.60;32.00;;;;;;;;;;5054674;28;20937;-81
2021/12/01 01:36:31;;;;;;;27.50;25.90;;;;;;;;;;5054688;28;20434;-80
2021/12/01 01:38:59;;;;;;;31.63;29.63;;;;;;;;;;5054579;28;20805;-80
2021/12/01 01:41:26;;;;;;;32.22;30.05;;;;;;;;;;5054464;28;20444;-81
2021/12/01 01:43:55;;;;;;;30.67;28.48;;;;;;;;;;5054245;28;20210;-80
2021/12/01 01:46:22;;;;;;;28.10;26.30;;;;;;;;;;5054772;28;20219;-81
2021/12/01 01:48:53;;;;;;;29.03;27.37;;;;;;;;;;5054732;28;20446;-80
2021/12/01 01:51:25;;;;;;;30.33;28.43;;;;;;;;;;5054447;28;20443;-80
2021/12/01 01:53:55;;;;;;;30.17;28.40;;;;;;;;;;5054516;28;20503;-81
2021/12/01 01:56:22;;;;;;;29.70;28.00;;;;;;;;;;5054241;28;20426;-81
2021/12/01 01:58:50;;;;;;;27.63;26.07;;;;;;;;;;5054329;28;20438;-81
2021/12/01 02:01:35;;;;;;;27.47;25.93;;;;;;;;;;5054220;28;20449;-81
2021/12/01 02:04:02;;;;;;;30.40;28.43;;;;;;;;;;5054124;28;20449;-81
2021/12/01 02:06:31;;;;;;;29.83;27.98;;;;;;;;;;5054143;28;20873;-80
2021/12/01 02:08:58;;;;;;;25.60;24.37;;;;;;;;;;5054385;28;20203;-80
2021/12/01 02:11:26;;;;;;;29.00;27.50;;;;;;;;;;5054329;28;20537;-80
2021/12/01 02:13:54;;;;;;;28.47;26.80;;;;;;;;;;5053800;28;20663;-81
2021/12/01 02:16:23;;;;;;;29.40;27.60;;;;;;;;;;5053988;28;20760;-80
2021/12/01 02:18:51;;;;;;;28.23;26.77;;;;;;;;;;5053960;28;20831;-80
2021/12/01 02:21:26;;;;;;;26.87;25.57;;;;;;;;;;5054149;28;20440;-80
2021/12/01 02:23:54;;;;;;;24.47;23.07;;;;;;;;;;5053786;28;20445;-79
2021/12/01 02:26:23;;;;;;;29.27;27.73;;;;;;;;;;5053759;28;20490;-80
2021/12/01 02:28:51;;;;;;;26.97;25.50;;;;;;;;;;5053772;28;20443;-80
2021/12/01 02:31:19;;;;;;;26.33;25.03;;;;;;;;;;5053603;28;20808;-80
2021/12/01 02:33:46;;;;;;;26.23;24.93;;;;;;;;;;5053862;28;20457;-80
2021/12/01 02:36:14;;;;;;;25.47;24.07;;;;;;;;;;5053624;28;20986;-80
2021/12/01 02:38:44;;;;;;;28.40;26.80;;;;;;;;;;5053513;28;20409;-80
2021/12/01 02:41:12;;;;;;;27.53;26.00;;;;;;;;;;5053565;28;20916;-80
2021/12/01 02:43:40;;;;;;;24.33;23.13;;;;;;;;;;5053346;28;20773;-80
2021/12/01 02:46:07;;;;;;;24.00;22.70;;;;;;;;;;5053597;28;20446;-80
2021/12/01 02:48:41;;;;;;;26.97;25.57;;;;;;;;;;5053364;28;20408;-80
2021/12/01 02:51:09;;;;;;;28.00;26.40;;;;;;;;;;5053298;28;20921;-79
2021/12/01 02:53:37;;;;;;;27.20;25.80;;;;;;;;;;5052689;28;20608;-80
2021/12/01 02:56:06;;;;;;;27.10;25.60;;;;;;;;;;5053092;28;20944;-80
2021/12/01 02:58:38;;;;;;;27.90;26.40;;;;;;;;;;5053489;28;20445;-80
2021/12/01 03:01:07;;;;;;;27.43;25.63;;;;;;;;;;5053115;28;20424;-80
2021/12/01 03:03:34;;;;;;;27.57;25.83;;;;;;;;;;5053005;28;20430;-80
2021/12/01 03:06:02;;;;;;;29.80;27.63;;;;;;;;;;5053228;28;20438;-81
2021/12/01 03:08:30;;;;;;;29.23;27.50;;;;;;;;;;5053026;28;20431;-80
2021/12/01 03:10:58;;;;;;;29.07;27.17;;;;;;;;;;5052847;28;20455;-80
2021/12/01 03:13:27;;;;;;;28.33;26.63;;;;;;;;;;5053141;28;20408;-80
2021/12/01 03:15:54;;;;;;;25.75;24.45;;;;;;;;;;5052830;28;20196;-80
2021/12/01 03:18:22;;;;;;;28.87;27.17;;;;;;;;;;5053086;28;20199;-80
2021/12/01 03:20:50;;;;;;;29.67;27.67;;;;;;;;;;5053079;28;20410;-80
2021/12/01 03:23:17;;;;;;;25.42;24.05;;;;;;;;;;5052849;28;20419;-80
2021/12/01 03:25:45;;;;;;;26.70;25.30;;;;;;;;;;5052709;28;20537;-79
2021/12/01 03:28:12;;;;;;;27.10;25.60;;;;;;;;;;5052597;28;20468;-80
2021/12/01 03:30:41;;;;;;;26.40;24.80;;;;;;;;;;5052923;28;20423;-80
2021/12/01 03:33:09;;;;;;;23.30;22.10;;;;;;;;;;5051421;28;20662;-80
2021/12/01 03:35:38;;;;;;;25.13;23.50;;;;;;;;;;5052627;28;20199;-80
2021/12/01 03:38:06;;;;;;;27.25;25.67;;;;;;;;;;5051492;28;20450;-80
2021/12/01 03:40:33;;;;;;;22.88;21.77;;;;;;;;;;5052817;28;20202;-80
2021/12/01 03:43:01;;;;;;;25.20;23.70;;;;;;;;;;5052549;28;20187;-80
2021/12/01 03:45:29;;;;;;;25.73;24.42;;;;;;;;;;5052584;28;20444;-80
2021/12/01 03:47:58;;;;;;;27.07;25.40;;;;;;;;;;5052789;28;20245;-80
2021/12/01 03:50:25;;;;;;;25.57;24.23;;;;;;;;;;5052789;28;20445;-80
2021/12/01 03:52:53;;;;;;;23.43;22.23;;;;;;;;;;5052238;28;20463;-80
2021/12/01 03:55:21;;;;;;;22.77;21.67;;;;;;;;;;5052788;28;20420;-80
2021/12/01 03:57:48;;;;;;;26.30;24.70;;;;;;;;;;5051089;28;20673;-80
2021/12/01 04:00:17;;;;;;;23.83;22.63;;;;;;;;;;5052767;28;20943;-80
2021/12/01 04:02:45;;;;;;;25.23;23.93;;;;;;;;;;5052398;28;20412;-80
2021/12/01 04:05:14;;;;;;;24.90;23.70;;;;;;;;;;5052282;28;20890;-80
2021/12/01 04:07:42;;;;;;;27.33;25.93;;;;;;;;;;5055941;28;20821;-80
2021/12/01 04:10:11;;;;;;;26.40;25.00;;;;;;;;;;5056317;28;20473;-81
2021/12/01 04:12:39;;;;;;;25.07;23.77;;;;;;;;;;5055106;28;20249;-79
2021/12/01 04:15:06;;;;;;;24.97;23.57;;;;;;;;;;5056040;28;20533;-81
2021/12/01 04:17:34;;;;;;;26.07;24.53;;;;;;;;;;5056218;28;20419;-80
2021/12/01 04:20:02;;;;;;;25.88;24.45;;;;;;;;;;5056405;28;20429;-81
2021/12/01 04:22:31;;;;;;;28.17;26.50;;;;;;;;;;5056126;28;20657;-80
2021/12/01 04:24:58;;;;;;;23.77;22.57;;;;;;;;;;5055977;28;20783;-80
2021/12/01 04:27:26;;;;;;;25.60;24.10;;;;;;;;;;5056283;28;20457;-80
2021/12/01 04:29:53;;;;;;;25.10;23.70;;;;;;;;;;5055962;28;20448;-80
2021/12/01 04:32:21;;;;;;;24.60;23.30;;;;;;;;;;5056230;28;20428;-80
2021/12/01 04:34:48;;;;;;;22.73;21.40;;;;;;;;;;5055832;28;20424;-80
2021/12/01 04:37:16;;;;;;;21.65;20.48;;;;;;;;;;5055860;28;20911;-80
2021/12/01 04:39:44;;;;;;;24.48;22.77;;;;;;;;;;5055830;28;20230;-80
2021/12/01 04:42:13;;;;;;;23.48;21.98;;;;;;;;;;5056071;28;20220;-80
2021/12/01 04:44:40;;;;;;;22.97;21.77;;;;;;;;;;5055913;28;20184;-80
2021/12/01 04:47:12;;;;;;;22.80;21.60;;;;;;;;;;5055984;28;20479;-80
2021/12/01 04:49:40;;;;;;;24.03;22.73;;;;;;;;;;5055601;28;20478;-80
2021/12/01 04:52:08;;;;;;;23.38;22.05;;;;;;;;;;5055683;28;20864;-80
2021/12/01 04:54:36;;;;;;;24.83;23.43;;;;;;;;;;5055656;28;20191;-80
2021/12/01 04:57:05;;;;;;;24.70;23.30;;;;;;;;;;5055854;28;20417;-80
2021/12/01 04:59:33;;;;;;;25.85;24.38;;;;;;;;;;5055452;28;20195;-80
2021/12/01 05:02:01;;;;;;;24.23;22.60;;;;;;;;;;5055669;28;20195;-80
2021/12/01 05:04:28;;;;;;;25.83;24.37;;;;;;;;;;5055336;28;20196;-81
2021/12/01 05:06:56;;;;;;;22.48;21.30;;;;;;;;;;5055533;28;20417;-80
2021/12/01 05:09:23;;;;;;;24.60;23.20;;;;;;;;;;5055327;28;20309;-80
2021/12/01 05:11:51;;;;;;;24.90;23.50;;;;;;;;;;5055299;28;20782;-80
2021/12/01 05:14:20;;;;;;;25.37;23.70;;;;;;;;;;5054844;28;20866;-80
2021/12/01 05:16:47;;;;;;;24.17;22.87;;;;;;;;;;5054729;28;20449;-80
2021/12/01 05:19:15;;;;;;;23.30;22.07;;;;;;;;;;5055399;28;20441;-80
2021/12/01 05:21:42;;;;;;;22.87;21.60;;;;;;;;;;5055010;28;20413;-80
2021/12/01 05:24:10;;;;;;;25.10;23.70;;;;;;;;;;5055208;28;20941;-81
2021/12/01 05:26:38;;;;;;;23.53;22.13;;;;;;;;;;5055098;28;20192;-80
2021/12/01 05:29:05;;;;;;;22.88;21.67;;;;;;;;;;5054915;28;20474;-81
2021/12/01 05:31:34;;;;;;;23.25;21.95;;;;;;;;;;5055216;28;20192;-80
2021/12/01 05:34:02;;;;;;;24.83;23.33;;;;;;;;;;5055114;28;20552;-81
2021/12/01 05:36:29;;;;;;;21.83;20.67;;;;;;;;;;5054776;28;20188;-80
2021/12/01 05:38:57;;;;;;;24.10;22.70;;;;;;;;;;5055021;28;20450;-80
2021/12/01 05:41:24;;;;;;;24.60;23.10;;;;;;;;;;5055005;28;20413;-79
2021/12/01 05:43:52;;;;;;;22.80;21.50;;;;;;;;;;5054438;28;20911;-82
2021/12/01 05:46:19;;;;;;;23.13;21.73;;;;;;;;;;5054521;28;20453;-81
2021/12/01 05:48:51;;;;;;;22.40;21.20;;;;;;;;;;5054568;28;20464;-80
2021/12/01 05:51:19;;;;;;;23.70;22.40;;;;;;;;;;5054576;28;20591;-82
2021/12/01 05:53:46;;;;;;;22.80;21.60;;;;;;;;;;5054538;28;20218;-81
2021/12/01 05:56:13;;;;;;;23.50;22.20;;;;;;;;;;5054708;28;20418;-80
2021/12/01 05:58:41;;;;;;;22.60;21.30;;;;;;;;;;5054306;28;20789;-79
2021/12/01 06:01:08;;;;;;;22.70;21.50;;;;;;;;;;5054621;28;20460;-79
2021/12/01 06:03:38;;;;;;;23.13;21.83;;;;;;;;;;5054547;28;20198;-80
2021/12/01 06:06:08;;;;;;;22.03;20.80;;;;;;;;;;5054587;28;20191;-80
2021/12/01 06:08:35;;;;;;;22.57;21.37;;;;;;;;;;5054398;28;20475;-81
2021/12/01 06:11:03;;;;;;;21.70;20.50;;;;;;;;;;5054032;28;20453;-80
2021/12/01 06:13:31;;;;;;;21.40;20.27;;;;;;;;;;5053877;28;20416;-80
2021/12/01 06:15:58;;;;;;;22.35;21.15;;;;;;;;;;5054088;28;20257;-80
2021/12/01 06:18:25;;;;;;;22.98;21.50;;;;;;;;;;5054282;28;20551;-80
2021/12/01 06:20:53;;;;;;;21.63;20.20;;;;;;;;;;5053966;28;20192;-80
2021/12/01 06:23:22;;;;;;;20.40;19.40;;;;;;;;;;5053790;28;20431;-80
2021/12/01 06:25:50;;;;;;;22.70;21.50;;;;;;;;;;5053882;28;20435;-80
2021/12/01 06:28:17;;;;;;;21.97;20.77;;;;;;;;;;5053352;28;20221;-80
2021/12/01 06:30:45;;;;;;;20.27;19.27;;;;;;;;;;5053541;28;20774;-80
2021/12/01 06:33:12;;;;;;;20.90;19.80;;;;;;;;;;5053553;28;20538;-80
2021/12/01 06:35:44;;;;;;;22.70;21.40;;;;;;;;;;5053660;28;20419;-80
2021/12/01 06:38:12;;;;;;;21.10;20.00;;;;;;;;;;5053578;28;20886;-80
2021/12/01 06:40:41;;;;;;;22.13;20.83;;;;;;;;;;5053569;28;20449;-80
2021/12/01 06:43:09;;;;;;;20.73;19.63;;;;;;;;;;5052180;28;20945;-79
2021/12/01 06:45:36;;;;;;;21.67;20.37;;;;;;;;;;5053285;28;20434;-80
2021/12/01 06:48:04;;;;;;;20.58;19.48;;;;;;;;;;5053261;28;21005;-79
2021/12/01 06:50:32;;;;;;;20.85;19.75;;;;;;;;;;5053350;28;20218;-80
2021/12/01 06:52:59;;;;;;;21.42;20.23;;;;;;;;;;5053106;28;20254;-80
2021/12/01 06:55:26;;;;;;;21.77;20.50;;;;;;;;;;5053261;28;20188;-80
2021/12/01 06:57:55;;;;;;;21.17;20.07;;;;;;;;;;5053124;28;20441;-80
2021/12/01 07:00:25;;;;;;;21.80;20.60;;;;;;;;;;5051775;28;20812;-79
2021/12/01 07:02:52;;;;;;;21.73;20.52;;;;;;;;;;5064330;28;20184;-80
2021/12/01 07:05:20;;;;;;;20.67;19.58;;;;;;;;;;5073341;28;20197;-80
2021/12/01 07:07:47;;;;;;;20.37;19.27;;;;;;;;;;5071714;28;20227;-80
2021/12/01 07:10:15;;;;;;;21.10;19.90;;;;;;;;;;5078860;28;20427;-79
2021/12/01 07:12:43;;;;;;;20.98;19.77;;;;;;;;;;5098442;28;20178;-80
2021/12/01 07:15:12;;;;;;;20.93;19.73;;;;;;;;;;5098232;28;20171;-79
2021/12/01 07:17:40;;;;;;;20.60;19.40;;;;;;;;;;5093724;28;20409;-80
2021/12/01 07:20:08;;;;;;;20.20;19.10;;;;;;;;;;5073647;28;20521;-80
2021/12/01 07:22:36;;;;;;;20.50;19.40;;;;;;;;;;5073552;28;20423;-80
2021/12/01 07:25:04;;;;;;;21.10;19.85;;;;;;;;;;5072288;28;20203;-80
2021/12/01 07:27:31;;;;;;;20.95;19.85;;;;;;;;;;5073642;28;20210;-80
2021/12/01 07:29:58;;;;;;;20.30;19.20;;;;;;;;;;5073069;28;20199;-80
2021/12/01 07:32:28;;;;;;;19.58;18.58;;;;;;;;;;5073255;28;20441;-80
2021/12/01 07:34:56;;;;;;;20.83;19.67;;;;;;;;;;5073213;28;20198;-79
2021/12/01 07:37:23;;;;;;;20.30;19.20;;;;;;;;;;5073063;28;20472;-80
2021/12/01 07:39:51;;;;;;;20.73;19.57;;;;;;;;;;5072842;28;20420;-80
2021/12/01 07:42:19;;;;;;;20.27;19.17;;;;;;;;;;5072910;28;20458;-80
2021/12/01 07:44:46;;;;;;;20.77;19.57;;;;;;;;;;5072531;28;20418;-80
2021/12/01 07:47:13;;;;;;;20.73;19.63;;;;;;;;;;5073027;28;20837;-80
2021/12/01 07:49:42;;;;;;;19.80;18.70;;;;;;;;;;5072794;28;20463;-80
2021/12/01 07:52:10;;;;;;;20.57;19.37;;;;;;;;;;5072782;28;20463;-80
2021/12/01 07:54:39;;;;;;;19.90;18.80;;;;;;;;;;5072521;28;20430;-80
2021/12/01 07:57:06;;;;;;;19.77;18.47;;;;;;;;;;5072629;28;20534;-80
2021/12/01 07:59:34;;;;;;;19.77;18.77;;;;;;;;;;5072590;28;20911;-80
2021/12/01 08:02:01;;;;;;;19.73;18.63;;;;;;;;;;5064986;28;20445;-79
2021/12/01 08:04:29;;;;;;;20.65;19.45;;;;;;;;;;5062070;28;20449;-80
2021/12/01 08:06:57;;;;;;;20.13;18.77;;;;;;;;;;5061180;28;20191;-80
2021/12/01 08:09:25;;;;;;;19.43;18.33;;;;;;;;;;5072521;28;21001;-79
2021/12/01 08:11:53;;;;;;;19.53;18.53;;;;;;;;;;5066115;28;20457;-80
2021/12/01 08:14:20;;;;;;;20.17;19.05;;;;;;;;;;5052708;28;20437;-81
2021/12/01 08:16:48;;;;;;;18.35;17.45;;;;;;;;;;5060686;28;20195;-79
2021/12/01 08:19:15;;;;;;;18.30;17.40;;;;;;;;;;5032791;28;20640;-78
2021/12/01 08:21:47;;;;;;;19.30;18.20;;;;;;;;;;5032767;28;20200;-82
2021/12/01 08:24:16;;;;;;;19.40;18.30;;;;;;;;;;5031156;28;20429;-81
2021/12/01 08:26:44;;;;;;;19.80;18.70;;;;;;;;;;5033007;28;20193;-79
2021/12/01 08:29:12;;;;;;;18.60;17.70;;;;;;;;;;5035863;28;20461;-79
2021/12/01 08:31:39;;;;;;;19.13;17.73;;;;;;;;;;5032601;28;20431;-78
2021/12/01 08:34:07;;;;;;;18.07;17.17;;;;;;;;;;5033242;28;20449;-79
2021/12/01 08:36:34;;;;;;;18.10;17.20;;;;;;;;;;5032653;28;20410;-79
2021/12/01 08:39:02;;;;;;;19.33;18.23;;;;;;;;;;5034623;28;20439;-80
2021/12/01 08:41:31;;;;;;;18.85;17.95;;;;;;;;;;5038311;28;20207;-79
2021/12/01 08:43:58;;;;;;;18.60;17.70;;;;;;;;;;5034826;28;20193;-80
2021/12/01 08:46:26;;;;;;;18.70;17.80;;;;;;;;;;5032808;28;20795;-80
2021/12/01 08:48:53;;;;;;;18.70;17.80;;;;;;;;;;5032503;28;20486;-79
2021/12/01 08:51:20;;;;;;;19.00;17.90;;;;;;;;;;5031921;28;20461;-79
2021/12/01 08:53:48;;;;;;;18.40;17.50;;;;;;;;;;5035513;28;20768;-81
2021/12/01 08:56:15;;;;;;;19.33;18.33;;;;;;;;;;5035027;28;20188;-81
2021/12/01 08:58:44;;;;;;;19.02;18.02;;;;;;;;;;5035380;28;20424;-81
2021/12/01 09:01:12;;;;;;;18.63;17.73;;;;;;;;;;5035883;28;20191;-81
2021/12/01 09:03:39;;;;;;;19.33;18.35;;;;;;;;;;5035998;28;20650;-81
2021/12/01 09:06:07;;;;;;;18.98;17.98;;;;;;;;;;5034427;28;20262;-79
2021/12/01 09:08:34;;;;;;;18.60;17.70;;;;;;;;;;5035483;28;20222;-78
2021/12/01 09:11:03;;;;;;;18.67;17.67;;;;;;;;;;5035722;28;20450;-80
2021/12/01 09:13:31;;;;;;;19.23;18.23;;;;;;;;;;5041563;28;20489;-82
2021/12/01 09:16:00;;;;;;;18.70;17.80;;;;;;;;;;5043864;28;20418;-82
2021/12/01 09:18:29;;;;;;;18.40;17.50;;;;;;;;;;5035433;28;20533;-80
2021/12/01 09:20:57;;;;;;;19.48;18.27;;;;;;;;;;5035220;28;20208;-79
2021/12/01 09:23:25;;;;;;;19.05;18.15;;;;;;;;;;5035590;28;20558;-80
2021/12/01 09:25:52;;;;;;;18.90;17.90;;;;;;;;;;5035093;28;20207;-80
2021/12/01 09:28:22;;;;;;;18.70;17.60;;;;;;;;;;5035205;28;20448;-80
2021/12/01 09:30:50;;;;;;;19.10;18.10;;;;;;;;;;5035548;28;20444;-80
2021/12/01 09:33:19;;;;;;;18.80;17.90;;;;;;;;;;5035017;28;20203;-79
2021/12/01 09:35:46;;;;;;;19.15;18.25;;;;;;;;;;5035408;28;20749;-79
2021/12/01 09:38:15;;;;;;;18.40;17.50;;;;;;;;;;5044151;28;20657;-80
2021/12/01 09:40:46;;;;;;;19.25;18.25;;;;;;;;;;5042175;28;20444;-78
2021/12/01 09:43:14;;;;;;;19.13;18.13;;;;;;;;;;5043727;28;20345;-81
2021/12/01 09:45:42;;;;;;;19.40;18.40;;;;;;;;;;5038084;28;20199;-79
2021/12/01 09:48:09;;;;;;;18.90;18.00;;;;;;;;;;5044497;28;20195;-78
2021/12/01 09:50:38;;;;;;;19.00;18.00;;;;;;;;;;5042137;28;20629;-79
2021/12/01 09:53:06;;;;;;;19.15;18.15;;;;;;;;;;5034681;28;20227;-80
2021/12/01 09:55:34;;;;;;;18.77;17.70;;;;;;;;;;5035325;28;20681;-80
2021/12/01 09:58:04;;;;;;;18.00;17.10;;;;;;;;;;5034813;28;20438;-77
2021/12/01 10:00:32;;;;;;;18.57;17.67;;;;;;;;;;5034682;28;20458;-77
2021/12/01 10:03:01;;;;;;;18.58;17.63;;;;;;;;;;5035565;28;20471;-77
2021/12/01 10:05:47;;;;;;;18.60;17.70;;;;;;;;;;5034999;28;20609;-78
2021/12/01 10:08:18;;;;;;;18.43;17.53;;;;;;;;;;5034497;28;20805;-79
2021/12/01 10:10:46;;;;;;;19.00;18.00;;;;;;;;;;5034368;28;20445;-80
2021/12/01 10:13:14;;;;;;;19.13;18.03;;;;;;;;;;5034045;28;20196;-80
2021/12/01 10:15:41;;;;;;;18.83;17.87;;;;;;;;;;5034474;28;20447;-83
2021/12/01 10:18:10;;;;;;;19.23;18.23;;;;;;;;;;5034373;28;20430;-80
2021/12/01 10:20:37;;;;;;;18.90;18.00;;;;;;;;;;5034006;28;20439;-79
2021/12/01 10:23:09;;;;;;;18.90;17.90;;;;;;;;;;5034257;28;20447;-79
2021/12/01 10:25:38;;;;;;;19.03;18.13;;;;;;;;;;5034400;28;20417;-80
2021/12/01 10:28:06;;;;;;;18.50;17.60;;;;;;;;;;5032734;28;20504;-79
2021/12/01 10:30:41;;;;;;;19.00;18.10;;;;;;;;;;5033873;28;20460;-78
2021/12/01 10:33:09;;;;;;;19.33;18.43;;;;;;;;;;5034247;28;20475;-78
2021/12/01 10:35:37;;;;;;;18.10;17.20;;;;;;;;;;5033798;28;20875;-80
2021/12/01 10:38:06;;;;;;;18.20;17.40;;;;;;;;;;5034039;28;20421;-79
2021/12/01 10:40:34;;;;;;;18.07;17.17;;;;;;;;;;5033785;28;20969;-81
2021/12/01 10:43:04;;;;;;;18.73;17.73;;;;;;;;;;5033865;28;20434;-80
2021/12/01 10:45:33;;;;;;;18.33;17.43;;;;;;;;;;5033794;28;20195;-79
2021/12/01 10:48:02;;;;;;;18.60;17.70;;;;;;;;;;5034013;28;20436;-81
2021/12/01 10:50:31;;;;;;;18.00;17.10;;;;;;;;;;5032530;28;20494;-80
2021/12/01 10:53:03;;;;;;;18.90;18.00;;;;;;;;;;5031668;28;20457;-79
2021/12/01 10:55:32;;;;;;;19.33;18.10;;;;;;;;;;5034890;28;20438;-79
2021/12/01 10:58:00;;;;;;;20.07;18.97;;;;;;;;;;5072034;28;20206;-80
2021/12/01 11:00:30;;;;;;;19.57;18.57;;;;;;;;;;5067021;28;20877;-79
2021/12/01 11:03:07;;;;;;;19.90;18.80;;;;;;;;;;5055346;28;20442;-85
2021/12/01 11:05:35;;;;;;;19.40;18.50;;;;;;;;;;5055144;28;20424;-86
2021/12/01 11:08:13;;;;;;;19.83;18.83;;;;;;;;;;5054812;28;21033;-87
2021/12/01 11:10:41;;;;;;;19.60;18.60;;;;;;;;;;5054318;28;20471;-88
2021/12/01 11:13:08;;;;;;;19.70;18.80;;;;;;;;;;5055491;28;20424;-88
2021/12/01 11:15:38;;;;;;;19.60;18.50;;;;;;;;;;5054068;28;20425;-79
2021/12/01 11:18:07;;;;;;;19.80;18.70;;;;;;;;;;5052961;28;20417;-80
2021/12/01 11:20:42;;;;;;;19.67;18.60;;;;;;;;;;5052933;28;20431;-80
2021/12/01 11:23:11;;;;;;;19.13;18.23;;;;;;;;;;5053162;28;20431;-79
2021/12/01 11:25:39;;;;;;;18.40;17.50;;;;;;;;;;5053034;28;20434;-79
2021/12/01 11:28:08;;;;;;;18.48;17.58;;;;;;;;;;5053154;28;20458;-83
2021/12/01 11:30:35;;;;;;;18.90;18.00;;;;;;;;;;5052952;28;20261;-83
2021/12/01 11:33:04;;;;;;;19.73;18.73;;;;;;;;;;5053144;28;20416;-79
2021/12/01 11:35:32;;;;;;;19.10;18.20;;;;;;;;;;5052926;28;20413;-79
2021/12/01 11:38:00;;;;;;;18.00;17.10;;;;;;;;;;5052924;28;20408;-80
2021/12/01 11:40:27;;;;;;;18.63;17.73;;;;;;;;;;5052876;28;20455;-79
2021/12/01 11:42:55;;;;;;;18.50;17.60;;;;;;;;;;5052661;28;20423;-80
2021/12/01 11:45:22;;;;;;;17.70;16.70;;;;;;;;;;5052482;28;20442;-80
2021/12/01 11:47:50;;;;;;;18.23;17.33;;;;;;;;;;5053049;28;20442;-80
2021/12/01 11:50:22;;;;;;;19.00;18.10;;;;;;;;;;5054178;28;20489;-81
2021/12/01 11:53:08;;;;;;;18.20;17.30;;;;;;;;;;5053458;28;20459;-80
2021/12/01 11:55:52;;;;;;;17.53;16.70;;;;;;;;;;5052752;28;20438;-80
2021/12/01 11:58:37;;;;;;;18.00;17.10;;;;;;;;;;5054048;28;20428;-80
2021/12/01 12:01:05;;;;;;;17.93;17.13;;;;;;;;;;5053697;28;20420;-84
2021/12/01 12:03:32;;;;;;;18.27;17.37;;;;;;;;;;5058913;28;20796;-79
2021/12/01 12:06:18;;;;;;;17.97;17.07;;;;;;;;;;5062821;28;20444;-79
2021/12/01 12:09:00;;;;;;;17.37;16.57;;;;;;;;;;5061580;28;20408;-78
2021/12/01 12:11:36;;;;;;;18.10;17.30;;;;;;;;;;5065267;28;20420;-79
2021/12/01 12:14:05;;;;;;;17.77;16.97;;;;;;;;;;5059392;28;20421;-79
2021/12/01 12:16:33;;;;;;;18.00;17.20;;;;;;;;;;5053790;28;20445;-80
2021/12/01 12:19:00;;;;;;;18.10;17.20;;;;;;;;;;5054152;28;20432;-80
2021/12/01 12:21:36;;;;;;;18.20;17.30;;;;;;;;;;5059363;28;20413;-81
2021/12/01 12:24:07;;;;;;;18.20;17.40;;;;;;;;;;5073084;28;20460;-81
2021/12/01 12:26:36;;;;;;;17.33;16.53;;;;;;;;;;5077765;28;20445;-81
2021/12/01 12:29:06;;;;;;;18.47;17.57;;;;;;;;;;5085298;28;20420;-80
2021/12/01 12:31:33;;;;;;;18.00;17.20;;;;;;;;;;5085639;28;20877;-80
2021/12/01 12:34:03;;;;;;;19.98;18.90;;;;;;;;;;5080278;28;20429;-81
2021/12/01 12:36:38;;;;;;;19.43;18.30;;;;;;;;;;5080781;28;20188;-81
2021/12/01 12:39:08;;;;;;;22.30;21.20;;;;;;;;;;5080346;28;20419;-80
2021/12/01 12:41:50;;;;;;;25.93;24.70;;;;;;;;;;5079235;28;20909;-80
2021/12/01 12:44:32;;;;;;;27.33;26.03;;;;;;;;;;5077932;28;20464;-82
2021/12/01 12:47:02;;;;;;;22.07;20.90;;;;;;;;;;5077648;28;20457;-82
2021/12/01 12:49:40;;;;;;;25.53;24.23;;;;;;;;;;5077423;28;20779;-81
2021/12/01 12:52:37;;;;;;;24.15;22.95;;;;;;;;;;5076484;28;20456;-81
2021/12/01 12:55:09;;;;;;;25.02;23.83;;;;;;;;;;5035012;28;20251;-80
2021/12/01 12:57:49;;;;;;;23.08;21.98;;;;;;;;;;5035487;28;20707;-80
2021/12/01 13:00:17;;;;;;;22.97;21.87;;;;;;;;;;5030221;28;20205;-80
2021/12/01 13:02:45;;;;;;;23.85;22.60;;;;;;;;;;5014196;28;20462;-80
2021/12/01 13:05:12;;;;;;;23.45;22.15;;;;;;;;;;5014564;28;20201;-80
2021/12/01 13:07:51;;;;;;;21.55;20.45;;;;;;;;;;5014481;28;20197;-80
2021/12/01 13:10:22;;;;;;;21.83;20.38;;;;;;;;;;5015842;28;20283;-81
2021/12/01 13:12:51;;;;;;;21.35;20.17;;;;;;;;;;5014781;28;20197;-79
2021/12/01 13:15:19;;;;;;;21.80;20.50;;;;;;;;;;5016519;28;20200;-79
2021/12/01 13:17:48;;;;;;;20.88;19.77;;;;;;;;;;5022142;28;20432;-79
2021/12/01 13:20:15;;;;;;;21.05;19.67;;;;;;;;;;5022634;28;20192;-79
2021/12/01 13:22:43;;;;;;;20.60;19.50;;;;;;;;;;5019126;28;20299;-79
2021/12/01 13:25:17;;;;;;;21.85;20.13;;;;;;;;;;5019925;28;20196;-79
2021/12/01 13:27:46;;;;;;;20.60;19.40;;;;;;;;;;5020895;28;20528;-79
2021/12/01 13:30:14;;;;;;;19.33;18.23;;;;;;;;;;5064740;28;20248;-78
2021/12/01 13:32:41;;;;;;;19.38;18.33;;;;;;;;;;5066036;28;20426;-79
2021/12/01 13:35:09;;;;;;;20.25;19.15;;;;;;;;;;5060241;28;20194;-78
2021/12/01 13:37:36;;;;;;;19.23;18.13;;;;;;;;;;5060066;28;20719;-79
2021/12/01 13:40:10;;;;;;;18.92;18.02;;;;;;;;;;5059745;28;20198;-79
2021/12/01 13:42:38;;;;;;;20.07;19.07;;;;;;;;;;5059846;28;20184;-78
2021/12/01 13:45:11;;;;;;;19.75;18.65;;;;;;;;;;5061741;28;20439;-79
2021/12/01 13:47:40;;;;;;;19.00;18.10;;;;;;;;;;5047610;28;20193;-80
2021/12/01 13:50:09;;;;;;;19.30;18.30;;;;;;;;;;5048878;28;20642;-79
2021/12/01 13:52:37;;;;;;;20.25;18.70;;;;;;;;;;5053990;28;20228;-79
2021/12/01 13:55:15;;;;;;;19.30;18.10;;;;;;;;;;5058368;28;20178;-79
2021/12/01 13:57:43;;;;;;;19.63;18.73;;;;;;;;;;5058177;28;20203;-80
2021/12/01 14:00:13;;;;;;;18.60;17.70;;;;;;;;;;5057084;28;20224;-79
2021/12/01 14:02:41;;;;;;;19.67;18.67;;;;;;;;;;5065834;28;20417;-80
2021/12/01 14:05:10;;;;;;;19.00;18.00;;;;;;;;;;5066553;28;20204;-79
2021/12/01 14:07:49;;;;;;;18.90;17.90;;;;;;;;;;5067619;28;20455;-80
2021/12/01 14:10:35;;;;;;;20.00;18.90;;;;;;;;;;5064305;28;20677;-79
2021/12/01 14:13:02;;;;;;;18.53;17.53;;;;;;;;;;5063786;28;20205;-78
2021/12/01 14:15:32;;;;;;;18.83;17.93;;;;;;;;;;5063043;28;20438;-79
2021/12/01 14:18:00;;;;;;;19.05;17.95;;;;;;;;;;5060701;28;20934;-79
2021/12/01 14:20:27;;;;;;;20.55;19.38;;;;;;;;;;5061778;28;20188;-79
2021/12/01 14:22:56;;;;;;;19.00;18.10;;;;;;;;;;5060706;28;20184;-79
2021/12/01 14:25:23;;;;;;;19.42;18.42;;;;;;;;;;5062522;28;20188;-79
2021/12/01 14:27:52;;;;;;;19.50;18.50;;;;;;;;;;5063113;28;20206;-79
2021/12/01 14:30:19;;;;;;;19.85;18.75;;;;;;;;;;5064110;28;20224;-79